This is the latest recevied weather packets stored in our database for station/object KA1STV. If no packets are shown the sender has not sent any weather packets the latest 10 day(s).
| Time | Temp. | Humidity | Pressure | Rain* | Wind** | Luminosity | Snow |
|---|---|---|---|---|---|---|---|
| 1777835030 | 10.56° C | 42% | 1008 hPa | 0 mm | - | 221 W/m² | - |
| 1777834727 | 10.56° C | 44% | 1008 hPa | 0 mm | - | 378 W/m² | - |
| 1777834423 | 10° C | 43% | 1008.2 hPa | 0 mm | - | 304 W/m² | - |
| 1777834123 | 10° C | 44% | 1008 hPa | 0 mm | - | 201 W/m² | - |
| 1777833819 | 10° C | 45% | 1008.1 hPa | 0 mm | - | 189 W/m² | - |
| 1777833515 | 10° C | 45% | 1008 hPa | 0 mm | - | 178 W/m² | - |
| 1777833212 | 10° C | 44% | 1007.8 hPa | 0 mm | - | 199 W/m² | - |
| 1777832910 | 10° C | 44% | 1008.1 hPa | 0 mm | - | 272 W/m² | - |
| 1777832609 | 10° C | 46% | 1008 hPa | 0 mm | - | 220 W/m² | - |
| 1777832305 | 10.56° C | 44% | 1007.9 hPa | 0 mm | - | 205 W/m² | - |
| 1777832002 | 10.56° C | 43% | 1007.9 hPa | 0 mm | - | 225 W/m² | - |
| 1777831699 | 10.56° C | 42% | 1007.7 hPa | 0 mm | - | 183 W/m² | - |
| 1777831397 | 10.56° C | 45% | 1007.9 hPa | 0 mm | - | 262 W/m² | - |
| 1777831093 | 10.56° C | 43% | 1007.9 hPa | 0 mm | - | 362 W/m² | - |
| 1777830791 | 10° C | 45% | 1008.1 hPa | 0 mm | - | 229 W/m² | - |
| 1777830486 | 10° C | 45% | 1008 hPa | 0 mm | - | 225 W/m² | - |
| 1777830185 | 10.56° C | 45% | 1008 hPa | 0 mm | - | 158 W/m² | - |
| 1777829880 | 11.11° C | 48% | 1007.8 hPa | 0 mm | - | 229 W/m² | - |
| 1777829576 | 10° C | 47% | 1008.1 hPa | 0 mm | - | 876 W/m² | - |
| 1777829273 | 9.44° C | 49% | 1008.1 hPa | 0 mm | - | 367 W/m² | - |
| 1777828970 | 9.44° C | 51% | 1008.2 hPa | 0 mm | - | 233 W/m² | - |
| 1777828667 | 8.89° C | 51% | 1008.5 hPa | 0 mm | - | 189 W/m² | - |
| 1777828364 | 8.89° C | 52% | 1008.4 hPa | 0 mm | - | 152 W/m² | - |
| 1777828061 | 8.89° C | 50% | 1008.1 hPa | 0 mm | - | 96 W/m² | - |
| 1777827757 | 9.44° C | 51% | 1008.2 hPa | 0 mm | - | 113 W/m² | - |
* Rain latest hour (hover to see other rain measurements)
** Current wind speed in m/s (hover to see current wind gust speed)